Colorado AWOS List, Phone Numbers, Maps

USA |  
| Search AWOS

Rocky Mountain States: Montana | Wyoming | Colorado | New Mexico

Complete weather reports: Colorado

Legend: KFNL = METAR available Follow your local AWOS on AV Mobile = METAR available on AV Mobile
Station Colorado Location Frequency Phone
KAKOFAA ID AKO, ASOS, KAKO 252253Z AUTO 14010KT 10SM SCT080 23/04 A3020 RMK AO2 SLP186 T02280044 Follow KAKO on AV Mobile COLORADO PLAINS REGIONAL 135.475 970-345-2320
KALSFAA ID ALS, ASOS, KALS 252252Z AUTO 30011G17KT 10SM SCT090 BKN110 19/03 A3032 Follow KALS on AV Mobile SAN LUIS VALLEY REGIONAL 135.175 719-589-5669
KASEFAA ID ASE, ASOS, KASE 252253Z 29004KT 10SM -RA BKN090 BKN110 17/04 A3025 Follow KASE on AV Mobile ASPEN-PITKIN COUNTY AIRPORT 120.400 970-925-9168
KBKFFAA ID BKF, KBKF 252328Z 10010KT 10SM FEW010 BKN080 BKN200 13/12 A3026 Follow KBKF on AV Mobile Aurora, Buckley Air Force Base Airport
K7BMFAA ID 7BM, AWOS-3, K7BM 252335Z AUTO 11005KT 10SM CLR 15/01 A3042 RMK AO2 LTG DSNT E Follow K7BM on AV Mobile Cottonwood Pass 132.050 303-512-4919
KBDUFAA ID BDU, AWOS-3, KBDU 252336Z AUTO 17004KT 10SM CLR 17/09 A3022 RMK AO2 LTG DSNT E Follow KBDU on AV Mobile Boulder Municipal Airport 118.825 303-541-9540
KAEJFAA ID AEJ, AWOS-3, KAEJ 252335Z AUTO 15010G16KT 10SM CLR 15/04 A3032 RMK AO2 LTG DSNT E T01500035 Follow KAEJ on AV Mobile Central Colorado Regional Airport 132.925 719-395-2599
KITRFAA ID ITR, ASOS, KITR 252253Z AUTO 13012G17KT 10SM CLR 23/07 A3017 RMK AO2 SLP177 T02330067 Follow KITR on AV Mobile Kit Carson County Airport 135.225 719-346-7036
K1V6FAA ID 1V6, AWOS-3, K1V6 231950Z AUTO 08011G19KT 10SM SCT110 31/05 A3005 RMK AO2 LTG DSNT S Follow K1V6 on AV Mobile CANON CITY 120.025
KAFFFAA ID AFF, KAFF 252258Z AUTO 02004KT 10SM BKN070 OVC085 12/08 A3031 RMK AO2 PK WND 32027/01 LTG DSNT NE RAB00E39DZB39E41 TSE45 PRESFR SLP239 P0047 T01150083 Follow KAFF on AV Mobile Air Force Academy
KCOSFAA ID COS, ASOS, KCOS 252254Z 34016G25KT 10SM BKN075 OVC100 14/07 A3030 Follow KCOS on AV Mobile COLORADO SPRINGS MUNI 125.000 719-637-9696
KFLYFAA ID FLY, AWOS-3PT, KFLY 252335Z AUTO 36009KT 10SM BKN080 OVC110 11/09 A3032 RMK AO2 LTG DSNT SW T01100085 Follow KFLY on AV Mobile Meadowlake Airport, Peyton, CO 118.450 719-683-5371
KCCUFAA ID CCU, AWOS-3, KCCU 252336Z AUTO 26007KT 190V280 10SM VCTS SCT046 SCT055 11/M01 A3052 RMK AO2 LTG DSNT E SE AND NW Follow KCCU on AV Mobile Copper Mountain, Red Cliff Pass 118.075 970-968-1715
KCEZFAA ID CEZ, ASOS, KCEZ 252253Z AUTO 21010KT 10SM CLR 26/04 A3012 RMK AO2 LTG DSNT E SLP132 T02610044 Follow KCEZ on AV Mobile CORTEZ MONTEZUMA COUNTY AIRPORT 135.625 970-564-0193
KCAGFAA ID CAG, ASOS, KCAG 252253Z AUTO 27010KT 10SM SCT110 21/M02 A3018 Follow KCAG on AV Mobile CRAIG MOFFAT AIRPORT 135.425 970-824-2373
KRCVFAA ID RCV, AWOS-3PT, KRCV 252330Z AUTO 29004KT 10SM CLR 14/06 A3033 RMK AO2 LTG DSNT E T01380060 Follow KRCV on AV Mobile DEL NORTE 118.275 719-657-9017
KAJZFAA ID AJZ, AWOS-3, KAJZ 252235Z AUTO 20014G21KT 10SM TS SCT120 26/03 A3008 RMK AO2 LTG DSNT S AND SW T02590034 Follow KAJZ on AV Mobile Blake Field Airport 134.000 970-874-3251
KDNRICAO ID KDNR Denver / Stapleton International, Co.
KAPAFAA ID APA, ASOS, KAPA 252253Z 06006KT 8SM -RA SCT065 BKN120 BKN200 14/10 A3028 RMK AO2 RAB01 TSE49 SLP226 OCNL LTGICCG DSNT NE AND SE CB DSNT NE-SE MOV E P0006 T01440100 Follow KAPA on AV Mobile DENVER CENTENNIAL AIRPORT 120.300 303-706-9098
KDENFAA ID DEN, ASOS, KDEN 252253Z 32010KT 7SM -RA SCT070 BKN090 OVC110 13/11 A3027 Follow KDEN on AV Mobile DENVER INTERNATIONAL AIRPORT 125.600 303-342-0838
KFTGFAA ID FTG, AWOS-3, KFTG 252250Z 30011G17KT 7SM -VCTSRA OVC070 14/12 A3029 Follow KFTG on AV Mobile Front Range Airport 119.025 303-261-9104
KBJCFAA ID BJC, AWOS-3, KBJC 252245Z 00000KT 15SM FEW060 BKN100 16/11 A3026 Follow KBJC on AV Mobile Rocky Mountain Metro Airport 126.250 720-887-8067
K4V5ICAO ID K4V5 Durango Aviation Weather Reporting Station
KDROFAA ID DRO, ASOS, KDRO 252338Z AUTO 36005KT 10SM CLR 21/03 A3020 RMK AO2 LTG DSNT S T02110033 Follow KDRO on AV Mobile DURANGO-LA PLATA COUNTY AIRPORT 120.625 970-259-3579
KEGEFAA ID EGE, AWOS-3, KEGE 252250Z 00000KT 10SM SCT110 22/01 A3019 Follow KEGE on AV Mobile Eagle County Regional 135.575 970-524-7386
CO90FAA ID CO90, ASOS, K2V5 252352Z AUTO 11010G17KT 10SM CLR 25/04 A3017 RMK AO2 Follow  on AV Mobile USAF Academy Bullseye Aux Airstrip 118.325 719-683-3346
K0COFAA ID 0CO, AWOS-3, K0CO 252342Z AUTO 10011KT 1/2SM HZ OVC001 02/M05 A3056 RMK AO2 LTG DSNT E AND S Follow K0CO on AV Mobile EMPIRE 134.325
KEIKFAA ID EIK, AWOS-3, KEIK 252335Z AUTO 12009KT 10SM CLR 19/09 A3022 RMK AO2 LTG DSNT NE T01870086 Follow KEIK on AV Mobile Erie Municipal Airport 133.825 303-604-4339
KFCSFAA ID FCS, KFCS 252326Z 32012KT 10SM -TSRA FEW050 SCT060 BKN075CB 14/07 A3026 RMK AO2A LTG DSNT SW RAB26 TSB14 Follow KFCS on AV Mobile Fort Carson
KFCLICAO ID KFCL Fort Collins Supplementary Aviation Weather Reporting Station
KFNLFAA ID FNL, AWOS-3, KFNL 252335Z AUTO 17008KT 10SM CLR 19/09 A3019 RMK AO1 Follow KFNL on AV Mobile Fort Collins/Loveland, Fort Collins-Loveland Municipal Airport 135.075 970-669-9187
KFMMFAA ID FMM, AWOS-3, KFMM 252335Z AUTO 02005KT 10SM -RA BKN085 OVC100 21/06 A3019 RMK AO2 LTG DSNT S AND SW T02060056 Follow KFMM on AV Mobile Fort Morgan Municipal Airport 132.950 970-867-4823
KGNBFAA ID GNB, AWOS-3PT Granby-Grand County Airport 119.925 970-887-1803
KGJTFAA ID GJT, ASOS, KGJT 252337Z 28011G18KT 10SM -TSRA FEW065 BKN080CB OVC095 16/11 A3023 RMK AO2 PK WND 24047/2306 WSHFT 2258 LTG DSNT ALQDS RAB04 TSB16 TS OHD MOV N FRQ LTG ICCCCG ALQDS P0001 T01610106 Follow KGJT on AV Mobile GRAND JUNCTION WALKER FIELD 118.550 970-245-7881
KGXYFAA ID GXY, AWOS-3, KGXY 252335Z 27008KT 10SM CLR 20/08 A3020 RMK AO1 Follow KGXY on AV Mobile Greeley, Greeley-Weld County Airport 135.175 970-352-3511
K2V9ICAO ID K2V9 Gunnison Aviation Weather Reporting Station
KGUCFAA ID GUC, AWOS-3, KGUC 252335Z 33005KT 10SM CLR 17/03 A3030 RMK AO1 Follow KGUC on AV Mobile Gunnison, Gunnison-Crested Butte Regional Airport 135.075 970-641-3240
KHDNFAA ID HDN, AWOS-3, KHDN 252335Z AUTO 28008KT 10SM FEW120 19/M02 A3019 RMK AO1 Follow KHDN on AV Mobile Hayden, Yampa Valley Airport 119.275 970-276-3690
KHEQFAA ID HEQ, AWOS-3, KHEQ 252335Z AUTO 12006KT 10SM CLR 26/07 A3018 RMK AO2 Follow KHEQ on AV Mobile Holyoke Airport 119.275 970-854-3679
K20VFAA ID 20V, AWOS-3, K20V 252336Z AUTO 10008KT 10SM VCTS CLR 17/01 A3027 RMK AO2 LTG DSNT W Follow K20V on AV Mobile Kremmling, Mc Elroy Airfield 118.425 970-724-9659
KLHXFAA ID LHX, ASOS, KLHX 252253Z AUTO 07015KT 10SM CLR 24/12 A3013 RMK AO2 SLP155 T02440122 Follow KLHX on AV Mobile LA JUNTA MUNICIPAL AIRPORT 135.525 719-384-5961
KVTPFAA ID VTP, AWOS-3, KVTP 252323Z AUTO 04005KT 10SM VCTS SCT006 SCT040 OVC070 10/05 A3046 RMK AO2 LTG DSNT N Follow KVTP on AV Mobile La Veta Mountain, La Veta Pass 119.925 719-587-3120
KLAAFAA ID LAA, ASOS, KLAA 252253Z AUTO 12008KT 10SM SCT038 23/13 A3012 RMK AO2 SLP161 T02280128 TSNO PNO Follow KLAA on AV Mobile LAMAR MUNICIPAL AIRPORT 135.625 719-336-3854
KLXVFAA ID LXV, ASOS, KLXV 252253Z AUTO 18006KT 10SM CLR 12/02 A3040 Follow KLXV on AV Mobile LEADVILLE LAKE CO 118.375 719-486-2735
KLICFAA ID LIC, ASOS, KLIC 252255Z AUTO 14013KT 10SM SCT070 22/05 A3022 RMK AO2 SLP189 T02220050 Follow KLIC on AV Mobile LIMON MUNICIPAL AIRPORT 121.125 719-775-0515
KLMOFAA ID LMO, AWOS-3, KLMO 252334Z AUTO 21004KT 5SM HZ CLR 19/09 A3022 RMK AO2 T01920093 Follow KLMO on AV Mobile Vance Brand Airport 120.000 303-684-7545
KEEOFAA ID EEO, ASOS, KEEO 252253Z AUTO 12007KT 10SM CLR 20/03 A3018 RMK AO2 LTG DSNT S SLP158 T02000028 Follow KEEO on AV Mobile MEEKER AIRPORT 135.525 970-878-5036
KMYPFAA ID MYP, AWOS-3, KMYP 252334Z AUTO 21013KT 10SM CLR 08/00 A3064 RMK AO2 LTG DSNT E Follow KMYP on AV Mobile Salida Mountain, Monarch Pass 124.175 719-539-4436
KMTJFAA ID MTJ, ASOS, KMTJ 252329Z AUTO 30020G29KT 5SM -TSRA SCT075 BKN095 20/05 A3018 RMK AO2 PK WND 31029/2320 WSHFT 2315 LTG DSNT N AND NE RAB29 TSB27 PRESRR P0001 T02000050 Follow KMTJ on AV Mobile MONTROSE REGIONAL AIRPORT 135.225 970-249-1534
KMNHFAA ID MNH, AWOS-3, KMNH 252338Z AUTO 08007KT 10SM SCT033 SCT043 SCT049 09/07 A3033 RMK AO2 LTG DSNT NE AND S P0002 Follow KMNH on AV Mobile Elbert Mountain, Monument Pass 134.375 303-648-3479
KCRVICAO ID KCRV Nederland Mountain, Corona Pass
KAIBFAA ID AIB, AWOS-3, KAIB 252335Z AUTO 32020G35KT 4SM -TSRA SCT019 BKN090 OVC110 15/08 A3023 RMK AO2 LTG DSNT ALQS Follow KAIB on AV Mobile Hopkins Field Airport 132.525 970-864-2325
KPSOFAA ID PSO, AWOS-3, KPSO 252335Z AUTO 05004KT 10SM CLR 17/04 A3030 RMK AO2 T01680042 Follow KPSO on AV Mobile Stevens Field Airport 127.175 970-731-0365
KPEFICAO ID KPEF Peterson Air Force Base
KPUXICAO ID KPUX Pueblo NEXRAD
KPUBFAA ID PUB, ASOS, KPUB 252253Z 08007KT 10SM CLR 26/06 A3016 Follow KPUB on AV Mobile PUEBLO MEMORIAL AIRPORT 125.250 719-948-2803
4V0FAA ID 4V0, AWOS-3PT, K2V5 252352Z AUTO 11010G17KT 10SM CLR 25/04 A3017 RMK AO2 Follow  on AV Mobile RANGELY 119.025 970-675-2339
K1V1ICAO ID K1V1 Rifle Aviation Weather Reporting Station
KRILFAA ID RIL, ASOS, KRIL 252306Z AUTO 01007KT 10SM -RA FEW060 SCT075 BKN095 23/03 A3012 RMK AO2 LTG DSNT SE AND S RAB06 P0000 T02280028 Follow KRIL on AV Mobile RIFLE GARFIELD COUNTY RGNL 135.275 970-625-2206
K04VFAA ID 04V, AWOS-3, K04V 252336Z AUTO 00000KT 10SM CLR 15/07 A3033 RMK AO2 LTG DSNT NE AND E PWINO Follow K04V on AV Mobile Saguache, Saguache Municipal Airport 118.625 719-655-2229
KS29ICAO ID KS29 Salida
KANKFAA ID ANK, AWOS-3, KANK 252335Z AUTO 12010KT 10SM CLR 17/07 A3037 RMK AO1 T01660070 Follow KANK on AV Mobile Harriet Alexander Field Airport 133.850 719-539-5268
KSPDICAO ID KSPD, KSPD 252256Z AUTO 10008KT 21/14 A3016 RMK AO1 SLP167 T02060144 $ Follow KSPD on AV Mobile SPRINGFIELD COMANCHE NATL
KSBSFAA ID SBS, AWOS-3, KSBS 252335Z AUTO 25010G18KT 10SM CLR 20/M01 A3020 RMK AO1 T01951011 Follow KSBS on AV Mobile Steamboat Springs 118.325 970-879-7794
KSTKFAA ID STK, AWOS-3, KSTK 252330Z AUTO 14005KT 10SM CLR 23/07 A3016 RMK AO2 LTG DSNT SW Follow KSTK on AV Mobile Sterling Municipal Airport 118.525 970-526-3009
K5SMFAA ID 5SM, AWOS-3, K5SM 252332Z AUTO 07005KT 4SM RA SCT016 BKN020 OVC046 06/04 A3050 RMK AO2 TSNO Follow K5SM on AV Mobile Sunlight 126.075 970-384-3380
KTEXFAA ID TEX, AWOS-3, KTEX 252335Z AUTO 19003KT 10SM SCT080 SCT090 BKN110 18/04 A3034 RMK AO2 LTG DSNT N T01760037 Follow KTEX on AV Mobile Telluride, Telluride Regional Airport 118.325 970-728-1534
KTADFAA ID TAD, ASOS, KTAD 252254Z AUTO 15010KT 10SM CLR 22/07 A3021 RMK AO2 WSHFT 2229 LTG DSNT SE AND W SLP166 T02170072 Follow KTAD on AV Mobile Trinidad, Perry Stokes Airport 119.025 719-845-1156
K33VFAA ID 33V, AWOS-3, K33V 252335Z AUTO 01003KT 10SM OVC090 16/M01 A3028 RMK AO2 Follow K33V on AV Mobile WALDEN 118.625 970-723-4513
4V1FAA ID 4V1, AWOS-3, K2V5 252352Z AUTO 11010G17KT 10SM CLR 25/04 A3017 RMK AO2 Follow  on AV Mobile Spanish Peaks Airfield 123.600 719-738-1053
K4BMFAA ID 4BM, AWOS-3, K4BM 252337Z AUTO 00000KT 10SM VCTS SCT016 07/01 A3053 RMK AO2 LTG DSNT SE Follow K4BM on AV Mobile Wilkerson Pass 132.3 303-512-4418
KC96ICAO ID KC96 Winter Park Resort
KCPWFAA ID CPW, AWOS-3, KCPW 252342Z AUTO 22006KT 10SM CLR 06/00 A3057 RMK AO2 LTG DSNT NW Follow KCPW on AV Mobile Pagosa Springs, Wolf Creek Pass 121.125 970-264-2180
K2V5FAA ID 2V5, AWOS-3, K2V5 252235Z AUTO 10011G16KT 10SM CLR 26/03 A3016 RMK AO2 Follow K2V5 on AV Mobile Wray Municipal Airport 118.250 970-332-5930
2V6FAA ID 2V6, AWOS-3, K2V5 252352Z AUTO 11010G17KT 10SM CLR 25/04 A3017 RMK AO2 Follow  on AV Mobile YUMA 135.375 970-848-3007

Click on the AV Mobile icon AV Mobile icon by any station to follow that AWOS feed on AirportView.net Mobile.

Legend: Commercial service airport with AWOS Commercial Airport AWOSNon-Commercial service airport with AWOS Non-Commercial Airport AWOS
Airport AWOS - Click symbol for weather report Fort Morgan Municipal Airport KFMM 252335Z AUTO 02005KT 10SM -RA BKN085 OVC100 21/06 A3019 RMK AO2 LTG DSNT S AND SW T02060056 Hopkins Field Airport KAIB 252335Z AUTO 32020G35KT 4SM -TSRA SCT019 BKN090 OVC110 15/08 A3023 RMK AO2 LTG DSNT ALQS Telluride, Telluride Regional Airport KTEX 252335Z AUTO 19003KT 10SM SCT080 SCT090 BKN110 18/04 A3034 RMK AO2 LTG DSNT N T01760037 Greeley, Greeley-Weld County Airport KGXY 252335Z 27008KT 10SM CLR 20/08 A3020 RMK AO1 Front Range Airport KFTG 252250Z 30011G17KT 7SM -VCTSRA OVC070 14/12 A3029 Rocky Mountain Metro Airport KBJC 252245Z 00000KT 15SM FEW060 BKN100 16/11 A3026 DENVER CENTENNIAL AIRPORT KAPA 252253Z 06006KT 8SM -RA SCT065 BKN120 BKN200 14/10 A3028 RMK AO2 RAB01 TSE49 SLP226 OCNL LTGICCG DSNT NE AND SE CB DSNT NE-SE MOV E P0006 T01440100 DENVER INTERNATIONAL AIRPORT KDEN 252253Z 32010KT 7SM -RA SCT070 BKN090 OVC110 13/11 A3027 Fort Collins/Loveland, Fort Collins-Loveland Municipal Airport KFNL 252335Z AUTO 17008KT 10SM CLR 19/09 A3019 RMK AO1 Boulder Municipal Airport KBDU 252336Z AUTO 17004KT 10SM CLR 17/09 A3022 RMK AO2 LTG DSNT E Vance Brand Airport KLMO 252334Z AUTO 21004KT 5SM HZ CLR 19/09 A3022 RMK AO2 T01920093 Sterling Municipal Airport KSTK 252330Z AUTO 14005KT 10SM CLR 23/07 A3016 RMK AO2 LTG DSNT SW Holyoke Airport KHEQ 252335Z AUTO 12006KT 10SM CLR 26/07 A3018 RMK AO2 COLORADO PLAINS REGIONAL KAKO 252253Z AUTO 14010KT 10SM SCT080 23/04 A3020 RMK AO2 SLP186 T02280044 Kit Carson County Airport KITR 252253Z AUTO 13012G17KT 10SM CLR 23/07 A3017 RMK AO2 SLP177 T02330067 LIMON MUNICIPAL AIRPORT KLIC 252255Z AUTO 14013KT 10SM SCT070 22/05 A3022 RMK AO2 SLP189 T02220050 COLORADO SPRINGS MUNI KCOS 252254Z 34016G25KT 10SM BKN075 OVC100 14/07 A3030 LAMAR MUNICIPAL AIRPORT KLAA 252253Z AUTO 12008KT 10SM SCT038 23/13 A3012 RMK AO2 SLP161 T02280128 TSNO PNO LA JUNTA MUNICIPAL AIRPORT KLHX 252253Z AUTO 07015KT 10SM CLR 24/12 A3013 RMK AO2 SLP155 T02440122 Trinidad, Perry Stokes Airport KTAD 252254Z AUTO 15010KT 10SM CLR 22/07 A3021 RMK AO2 WSHFT 2229 LTG DSNT SE AND W SLP166 T02170072 PUEBLO MEMORIAL AIRPORT KPUB 252253Z 08007KT 10SM CLR 26/06 A3016 CANON CITY 1V6 SAN LUIS VALLEY REGIONAL KALS 252252Z AUTO 30011G17KT 10SM SCT090 BKN110 19/03 A3032 Saguache, Saguache Municipal Airport K04V 252336Z AUTO 00000KT 10SM CLR 15/07 A3033 RMK AO2 LTG DSNT NE AND E PWINO Granby-Grand County Airport KGNB WALDEN 33V Steamboat Springs KSBS 252335Z AUTO 25010G18KT 10SM CLR 20/M01 A3020 RMK AO1 T01951011 Hayden, Yampa Valley Airport KHDN 252335Z AUTO 28008KT 10SM FEW120 19/M02 A3019 RMK AO1 Kremmling, Mc Elroy Airfield K20V 252336Z AUTO 10008KT 10SM VCTS CLR 17/01 A3027 RMK AO2 LTG DSNT W LEADVILLE LAKE CO KLXV 252253Z AUTO 18006KT 10SM CLR 12/02 A3040 Eagle County Regional KEGE 252250Z 00000KT 10SM SCT110 22/01 A3019 CRAIG MOFFAT AIRPORT KCAG 252253Z AUTO 27010KT 10SM SCT110 21/M02 A3018 MEEKER AIRPORT KEEO 252253Z AUTO 12007KT 10SM CLR 20/03 A3018 RMK AO2 LTG DSNT S SLP158 T02000028 ASPEN-PITKIN COUNTY AIRPORT KASE 252253Z 29004KT 10SM -RA BKN090 BKN110 17/04 A3025 Gunnison, Gunnison-Crested Butte Regional Airport KGUC 252335Z 33005KT 10SM CLR 17/03 A3030 RMK AO1 DURANGO-LA PLATA COUNTY AIRPORT  KDRO 252338Z AUTO 36005KT 10SM CLR 21/03 A3020 RMK AO2 LTG DSNT S T02110033 Stevens Field Airport KPSO 252335Z AUTO 05004KT 10SM CLR 17/04 A3030 RMK AO2 T01680042 CORTEZ MONTEZUMA COUNTY AIRPORT  KCEZ 252253Z AUTO 21010KT 10SM CLR 26/04 A3012 RMK AO2 LTG DSNT E SLP132 T02610044 MONTROSE REGIONAL AIRPORT KMTJ 252329Z AUTO 30020G29KT 5SM -TSRA SCT075 BKN095 20/05 A3018 RMK AO2 PK WND 31029/2320 WSHFT 2315 LTG DSNT N AND NE RAB29 TSB27 PRESRR P0001 T02000050 RIFLE GARFIELD COUNTY RGNL KRIL 252306Z AUTO 01007KT 10SM -RA FEW060 SCT075 BKN095 23/03 A3012 RMK AO2 LTG DSNT SE AND S RAB06 P0000 T02280028 GRAND JUNCTION WALKER FIELD KGJT 252337Z 28011G18KT 10SM -TSRA FEW065 BKN080CB OVC095 16/11 A3023 RMK AO2 PK WND 24047/2306 WSHFT 2258 LTG DSNT ALQDS RAB04 TSB16 TS OHD MOV N FRQ LTG ICCCCG ALQDS P0001 T01610106 Blake Field Airport KAJZ 252235Z AUTO 20014G21KT 10SM TS SCT120 26/03 A3008 RMK AO2 LTG DSNT S AND SW T02590034 Central Colorado Regional Airport KAEJ 252335Z AUTO 15010G16KT 10SM CLR 15/04 A3032 RMK AO2 LTG DSNT E T01500035 Harriet Alexander Field Airport KANK 252335Z AUTO 12010KT 10SM CLR 17/07 A3037 RMK AO1 T01660070 Erie Municipal Airport KEIK 252335Z AUTO 12009KT 10SM CLR 19/09 A3022 RMK AO2 LTG DSNT NE T01870086 Wray Municipal Airport K2V5 252235Z AUTO 10011G16KT 10SM CLR 26/03 A3016 RMK AO2
Legend: High Mountain AWOS Mountain Pass AWOS
Mountain Pass AWOS - Click symbol for weather report Pagosa Springs, Wolf Creek Pass KCPW 252342Z AUTO 22006KT 10SM CLR 06/00 A3057 RMK AO2 LTG DSNT NW Saguache, Saguache Municipal Airport K04V 252336Z AUTO 00000KT 10SM CLR 15/07 A3033 RMK AO2 LTG DSNT NE AND E PWINO Kremmling, Mc Elroy Airfield K20V 252336Z AUTO 10008KT 10SM VCTS CLR 17/01 A3027 RMK AO2 LTG DSNT W La Veta Mountain, La Veta Pass KVTP 252323Z AUTO 04005KT 10SM VCTS SCT006 SCT040 OVC070 10/05 A3046 RMK AO2 LTG DSNT N Salida Mountain, Monarch Pass KMYP 252334Z AUTO 21013KT 10SM CLR 08/00 A3064 RMK AO2 LTG DSNT E Cottonwood Pass K7BM 252335Z AUTO 11005KT 10SM CLR 15/01 A3042 RMK AO2 LTG DSNT E Elbert Mountain, Monument Pass KMNH 252338Z AUTO 08007KT 10SM SCT033 SCT043 SCT049 09/07 A3033 RMK AO2 LTG DSNT NE AND S P0002 Wilkerson Pass K4BM 252337Z AUTO 00000KT 10SM VCTS SCT016 07/01 A3053 RMK AO2 LTG DSNT SE Copper Mountain, Red Cliff Pass KCCU 252336Z AUTO 26007KT 190V280 10SM VCTS SCT046 SCT055 11/M01 A3052 RMK AO2 LTG DSNT E SE AND NW EMPIRE 0CO Sunlight K5SM 252332Z AUTO 07005KT 4SM RA SCT016 BKN020 OVC046 06/04 A3050 RMK AO2 TSNO
Garmin Target Trend Avemco Insurance Company